sensor_id;sensor_type;location;lat;lon;timestamp;pressure;altitude;pressure_sealevel;temperature;humidity
9822;BME280;4950;46.042;14.472;2023-07-09T00:01:44;98401.97;;;22.48;74.89
9822;BME280;4950;46.042;14.472;2023-07-09T00:04:11;98401.25;;;22.53;75.11
9822;BME280;4950;46.042;14.472;2023-07-09T00:06:39;98402.63;;;22.56;75.00
9822;BME280;4950;46.042;14.472;2023-07-09T00:09:09;98396.66;;;22.48;75.01
9822;BME280;4950;46.042;14.472;2023-07-09T00:11:38;98394.94;;;22.25;75.43
9822;BME280;4950;46.042;14.472;2023-07-09T00:14:05;98396.66;;;22.20;75.63
9822;BME280;4950;46.042;14.472;2023-07-09T00:16:33;98398.31;;;22.09;75.60
9822;BME280;4950;46.042;14.472;2023-07-09T00:19:00;98397.81;;;21.95;75.45
9822;BME280;4950;46.042;14.472;2023-07-09T00:21:27;98397.09;;;22.00;75.88
9822;BME280;4950;46.042;14.472;2023-07-09T00:23:58;98401.19;;;22.07;75.63
9822;BME280;4950;46.042;14.472;2023-07-09T00:26:30;98400.72;;;22.11;76.15
9822;BME280;4950;46.042;14.472;2023-07-09T00:28:58;98398.06;;;22.11;75.86
9822;BME280;4950;46.042;14.472;2023-07-09T00:31:25;98397.16;;;22.17;76.07
9822;BME280;4950;46.042;14.472;2023-07-09T00:33:53;98405.09;;;22.17;76.20
9822;BME280;4950;46.042;14.472;2023-07-09T00:36:26;98402.75;;;22.20;75.99
9822;BME280;4950;46.042;14.472;2023-07-09T00:38:53;98410.44;;;22.22;76.76
9822;BME280;4950;46.042;14.472;2023-07-09T00:41:22;98399.53;;;22.18;76.71
9822;BME280;4950;46.042;14.472;2023-07-09T00:43:51;98407.72;;;22.17;76.81
9822;BME280;4950;46.042;14.472;2023-07-09T00:49:29;98422.91;;;22.09;77.10
9822;BME280;4950;46.042;14.472;2023-07-09T00:52:01;98418.66;;;22.08;77.34
9822;BME280;4950;46.042;14.472;2023-07-09T00:54:31;98427.50;;;22.14;77.33
9822;BME280;4950;46.042;14.472;2023-07-09T00:57:06;98425.97;;;22.18;77.25
9822;BME280;4950;46.042;14.472;2023-07-09T00:59:35;98422.22;;;22.14;77.17
9822;BME280;4950;46.042;14.472;2023-07-09T01:02:03;98432.47;;;21.99;77.43
9822;BME280;4950;46.042;14.472;2023-07-09T01:04:31;98432.19;;;21.95;77.45
9822;BME280;4950;46.042;14.472;2023-07-09T01:06:58;98427.91;;;21.94;77.89
9822;BME280;4950;46.042;14.472;2023-07-09T01:09:26;98428.28;;;21.86;77.55
9822;BME280;4950;46.042;14.472;2023-07-09T01:11:53;98427.81;;;21.77;77.35
9822;BME280;4950;46.042;14.472;2023-07-09T01:14:23;98419.09;;;21.77;76.01
9822;BME280;4950;46.042;14.472;2023-07-09T01:16:53;98428.66;;;21.66;75.57
9822;BME280;4950;46.042;14.472;2023-07-09T01:19:24;98432.44;;;21.70;75.57
9822;BME280;4950;46.042;14.472;2023-07-09T01:21:54;98422.22;;;21.50;76.07
9822;BME280;4950;46.042;14.472;2023-07-09T01:24:51;98423.84;;;21.51;76.45
9822;BME280;4950;46.042;14.472;2023-07-09T01:27:21;98432.22;;;21.60;76.61
9822;BME280;4950;46.042;14.472;2023-07-09T01:29:48;98433.38;;;21.64;76.24
9822;BME280;4950;46.042;14.472;2023-07-09T01:32:16;98436.22;;;21.74;76.22
9822;BME280;4950;46.042;14.472;2023-07-09T01:34:44;98439.78;;;21.80;75.31
9822;BME280;4950;46.042;14.472;2023-07-09T01:37:14;98439.09;;;21.84;75.50
9822;BME280;4950;46.042;14.472;2023-07-09T01:39:41;98440.94;;;21.84;76.19
9822;BME280;4950;46.042;14.472;2023-07-09T01:42:08;98438.38;;;21.89;76.09
9822;BME280;4950;46.042;14.472;2023-07-09T01:44:35;98442.53;;;21.85;76.44
9822;BME280;4950;46.042;14.472;2023-07-09T01:47:02;98436.44;;;21.84;76.93
9822;BME280;4950;46.042;14.472;2023-07-09T01:49:30;98439.66;;;21.86;76.90
9822;BME280;4950;46.042;14.472;2023-07-09T01:51:58;98441.16;;;21.82;77.54
9822;BME280;4950;46.042;14.472;2023-07-09T01:54:28;98439.31;;;21.83;77.79
9822;BME280;4950;46.042;14.472;2023-07-09T01:57:13;98435.16;;;21.87;77.69
9822;BME280;4950;46.042;14.472;2023-07-09T01:59:40;98441.50;;;21.86;78.60
9822;BME280;4950;46.042;14.472;2023-07-09T02:02:07;98446.44;;;21.82;78.53
9822;BME280;4950;46.042;14.472;2023-07-09T02:04:34;98448.16;;;21.88;78.26
9822;BME280;4950;46.042;14.472;2023-07-09T02:07:01;98451.03;;;21.87;78.06
9822;BME280;4950;46.042;14.472;2023-07-09T02:09:28;98453.91;;;21.85;77.80
9822;BME280;4950;46.042;14.472;2023-07-09T02:11:55;98448.06;;;21.83;77.88
9822;BME280;4950;46.042;14.472;2023-07-09T02:14:22;98448.28;;;21.82;77.92
9822;BME280;4950;46.042;14.472;2023-07-09T02:19:16;98446.44;;;21.82;77.96
9822;BME280;4950;46.042;14.472;2023-07-09T02:21:42;98445.88;;;21.80;77.99
9822;BME280;4950;46.042;14.472;2023-07-09T02:24:09;98445.53;;;21.77;78.17
9822;BME280;4950;46.042;14.472;2023-07-09T02:26:37;98442.88;;;21.77;78.01
9822;BME280;4950;46.042;14.472;2023-07-09T02:29:04;98444.16;;;21.74;78.33
9822;BME280;4950;46.042;14.472;2023-07-09T02:31:30;98453.59;;;21.70;78.83
9822;BME280;4950;46.042;14.472;2023-07-09T02:33:59;98453.81;;;21.68;78.92
9822;BME280;4950;46.042;14.472;2023-07-09T02:36:25;98455.41;;;21.69;78.68
9822;BME280;4950;46.042;14.472;2023-07-09T02:38:52;98449.34;;;21.69;79.20
9822;BME280;4950;46.042;14.472;2023-07-09T02:41:19;98454.84;;;21.67;79.34
9822;BME280;4950;46.042;14.472;2023-07-09T02:43:47;98456.34;;;21.63;79.25
9822;BME280;4950;46.042;14.472;2023-07-09T02:46:13;98462.09;;;21.60;79.53
9822;BME280;4950;46.042;14.472;2023-07-09T02:48:40;98468.41;;;21.59;79.51
9822;BME280;4950;46.042;14.472;2023-07-09T02:51:06;98464.19;;;21.58;79.26
9822;BME280;4950;46.042;14.472;2023-07-09T02:53:33;98467.84;;;21.57;79.35
9822;BME280;4950;46.042;14.472;2023-07-09T02:56:00;98467.28;;;21.55;79.40
9822;BME280;4950;46.042;14.472;2023-07-09T02:58:26;98475.69;;;21.52;79.52
9822;BME280;4950;46.042;14.472;2023-07-09T03:00:54;98479.22;;;21.46;79.56
9822;BME280;4950;46.042;14.472;2023-07-09T03:03:21;98472.66;;;21.37;79.91
9822;BME280;4950;46.042;14.472;2023-07-09T03:05:47;98471.59;;;21.26;80.61
9822;BME280;4950;46.042;14.472;2023-07-09T03:08:14;98477.34;;;21.23;80.55
9822;BME280;4950;46.042;14.472;2023-07-09T03:10:41;98473.78;;;21.17;81.13
9822;BME280;4950;46.042;14.472;2023-07-09T03:13:07;98486.66;;;21.25;80.92
9822;BME280;4950;46.042;14.472;2023-07-09T03:15:34;98485.84;;;21.25;81.31
9822;BME280;4950;46.042;14.472;2023-07-09T03:18:02;98481.81;;;21.22;81.40
9822;BME280;4950;46.042;14.472;2023-07-09T03:20:29;98490.78;;;21.21;81.32
9822;BME280;4950;46.042;14.472;2023-07-09T03:22:56;98492.28;;;21.17;80.69
9822;BME280;4950;46.042;14.472;2023-07-09T03:25:22;98506.13;;;21.13;81.79
9822;BME280;4950;46.042;14.472;2023-07-09T03:27:49;98500.84;;;21.13;81.61
9822;BME280;4950;46.042;14.472;2023-07-09T03:30:16;98507.53;;;21.15;81.92
9822;BME280;4950;46.042;14.472;2023-07-09T03:32:43;98506.06;;;21.19;81.40
9822;BME280;4950;46.042;14.472;2023-07-09T03:35:11;98507.88;;;21.19;81.20
9822;BME280;4950;46.042;14.472;2023-07-09T03:37:37;98501.22;;;21.16;81.40
9822;BME280;4950;46.042;14.472;2023-07-09T03:40:05;98503.63;;;21.18;81.47
9822;BME280;4950;46.042;14.472;2023-07-09T03:42:32;98509.94;;;21.17;81.12
9822;BME280;4950;46.042;14.472;2023-07-09T03:44:59;98517.41;;;21.20;81.42
9822;BME280;4950;46.042;14.472;2023-07-09T03:47:25;98515.78;;;21.19;81.23
9822;BME280;4950;46.042;14.472;2023-07-09T03:49:52;98512.09;;;21.08;81.23
9822;BME280;4950;46.042;14.472;2023-07-09T03:52:20;98511.03;;;20.97;81.55
9822;BME280;4950;46.042;14.472;2023-07-09T03:54:47;98509.66;;;20.95;81.47
9822;BME280;4950;46.042;14.472;2023-07-09T03:57:13;98508.50;;;20.90;82.12
9822;BME280;4950;46.042;14.472;2023-07-09T03:59:40;98511.72;;;20.93;82.12
9822;BME280;4950;46.042;14.472;2023-07-09T04:02:06;98515.28;;;20.86;82.24
9822;BME280;4950;46.042;14.472;2023-07-09T04:04:33;98512.50;;;20.81;82.47
9822;BME280;4950;46.042;14.472;2023-07-09T04:07:00;98517.19;;;20.79;82.23
9822;BME280;4950;46.042;14.472;2023-07-09T04:09:28;98515.66;;;20.71;82.50
9822;BME280;4950;46.042;14.472;2023-07-09T04:11:55;98520.38;;;20.69;82.76
9822;BME280;4950;46.042;14.472;2023-07-09T04:14:21;98514.28;;;20.69;82.93
9822;BME280;4950;46.042;14.472;2023-07-09T04:16:48;98514.72;;;20.66;82.83
9822;BME280;4950;46.042;14.472;2023-07-09T04:19:14;98509.44;;;20.66;83.09
9822;BME280;4950;46.042;14.472;2023-07-09T04:21:41;98506.00;;;20.65;82.85
9822;BME280;4950;46.042;14.472;2023-07-09T04:24:07;98513.50;;;20.68;82.94
9822;BME280;4950;46.042;14.472;2023-07-09T04:26:36;98505.09;;;20.71;82.80
9822;BME280;4950;46.042;14.472;2023-07-09T04:29:04;98511.78;;;20.74;82.44
9822;BME280;4950;46.042;14.472;2023-07-09T04:31:31;98519.47;;;20.76;82.52
9822;BME280;4950;46.042;14.472;2023-07-09T04:33:58;98523.88;;;20.82;82.05
9822;BME280;4950;46.042;14.472;2023-07-09T04:36:24;98520.97;;;20.83;81.60
9822;BME280;4950;46.042;14.472;2023-07-09T04:38:51;98529.94;;;20.82;81.37
9822;BME280;4950;46.042;14.472;2023-07-09T04:41:18;98524.56;;;20.89;81.41
9822;BME280;4950;46.042;14.472;2023-07-09T04:43:46;98532.47;;;20.89;80.93
9822;BME280;4950;46.042;14.472;2023-07-09T04:46:13;98534.91;;;20.90;81.18
9822;BME280;4950;46.042;14.472;2023-07-09T04:48:39;98535.25;;;20.94;81.30
9822;BME280;4950;46.042;14.472;2023-07-09T04:51:06;98537.44;;;20.97;80.80
9822;BME280;4950;46.042;14.472;2023-07-09T04:53:33;98533.78;;;20.98;80.30
9822;BME280;4950;46.042;14.472;2023-07-09T04:56:00;98542.50;;;20.99;80.19
9822;BME280;4950;46.042;14.472;2023-07-09T04:58:27;98541.56;;;20.93;80.16
9822;BME280;4950;46.042;14.472;2023-07-09T05:00:58;98547.66;;;20.94;79.79
9822;BME280;4950;46.042;14.472;2023-07-09T05:03:24;98554.28;;;20.84;79.61
9822;BME280;4950;46.042;14.472;2023-07-09T05:05:51;98549.06;;;20.78;79.79
9822;BME280;4950;46.042;14.472;2023-07-09T05:08:18;98548.19;;;20.84;79.71
9822;BME280;4950;46.042;14.472;2023-07-09T05:10:49;98556.34;;;20.82;79.83
9822;BME280;4950;46.042;14.472;2023-07-09T05:13:16;98551.63;;;20.84;79.83
9822;BME280;4950;46.042;14.472;2023-07-09T05:15:44;98551.50;;;20.79;80.09
9822;BME280;4950;46.042;14.472;2023-07-09T05:18:13;98535.09;;;20.77;79.46
9822;BME280;4950;46.042;14.472;2023-07-09T05:20:40;98540.34;;;20.77;79.79
9822;BME280;4950;46.042;14.472;2023-07-09T05:23:07;98541.09;;;20.84;80.04
9822;BME280;4950;46.042;14.472;2023-07-09T05:25:34;98548.09;;;20.90;79.81
9822;BME280;4950;46.042;14.472;2023-07-09T05:28:01;98546.41;;;20.96;79.74
9822;BME280;4950;46.042;14.472;2023-07-09T05:30:28;98550.31;;;20.94;79.53
9822;BME280;4950;46.042;14.472;2023-07-09T05:32:54;98555.59;;;20.94;79.92
9822;BME280;4950;46.042;14.472;2023-07-09T05:35:24;98552.84;;;21.00;80.16
9822;BME280;4950;46.042;14.472;2023-07-09T05:37:52;98551.13;;;21.06;79.47
9822;BME280;4950;46.042;14.472;2023-07-09T05:40:19;98551.72;;;21.08;79.38
9822;BME280;4950;46.042;14.472;2023-07-09T05:42:47;98555.25;;;21.02;79.77
9822;BME280;4950;46.042;14.472;2023-07-09T05:45:14;98551.13;;;21.06;79.91
9822;BME280;4950;46.042;14.472;2023-07-09T05:47:41;98558.38;;;21.10;79.36
9822;BME280;4950;46.042;14.472;2023-07-09T05:50:08;98563.44;;;21.12;79.69
9822;BME280;4950;46.042;14.472;2023-07-09T05:52:36;98564.59;;;21.16;79.13
9822;BME280;4950;46.042;14.472;2023-07-09T05:55:03;98563.91;;;21.21;78.84
9822;BME280;4950;46.042;14.472;2023-07-09T05:57:30;98551.63;;;21.26;78.55
9822;BME280;4950;46.042;14.472;2023-07-09T05:59:56;98552.69;;;21.25;78.31
9822;BME280;4950;46.042;14.472;2023-07-09T06:02:23;98561.03;;;21.22;79.29
9822;BME280;4950;46.042;14.472;2023-07-09T06:04:50;98565.66;;;21.27;79.24
9822;BME280;4950;46.042;14.472;2023-07-09T06:07:17;98572.44;;;21.23;79.25
9822;BME280;4950;46.042;14.472;2023-07-09T06:09:45;98572.50;;;21.16;79.99
9822;BME280;4950;46.042;14.472;2023-07-09T06:12:13;98564.00;;;21.14;80.43
9822;BME280;4950;46.042;14.472;2023-07-09T06:14:40;98564.44;;;21.11;80.26
9822;BME280;4950;46.042;14.472;2023-07-09T06:17:07;98565.97;;;21.19;80.20
9822;BME280;4950;46.042;14.472;2023-07-09T06:19:33;98572.28;;;21.18;80.07
9822;BME280;4950;46.042;14.472;2023-07-09T06:22:00;98572.66;;;21.21;80.25
9822;BME280;4950;46.042;14.472;2023-07-09T06:24:27;98576.88;;;21.22;80.72
9822;BME280;4950;46.042;14.472;2023-07-09T06:26:55;98574.81;;;21.24;80.16
9822;BME280;4950;46.042;14.472;2023-07-09T06:29:21;98581.25;;;21.28;80.33
9822;BME280;4950;46.042;14.472;2023-07-09T06:31:48;98578.63;;;21.28;80.03
9822;BME280;4950;46.042;14.472;2023-07-09T06:34:15;98578.31;;;21.37;81.28
9822;BME280;4950;46.042;14.472;2023-07-09T06:36:41;98583.59;;;21.37;80.49
9822;BME280;4950;46.042;14.472;2023-07-09T06:39:08;98576.13;;;21.34;80.51
9822;BME280;4950;46.042;14.472;2023-07-09T06:41:35;98577.63;;;21.41;80.43
9822;BME280;4950;46.042;14.472;2023-07-09T06:44:05;98574.91;;;21.48;81.04
9822;BME280;4950;46.042;14.472;2023-07-09T06:46:32;98570.78;;;21.52;81.52
9822;BME280;4950;46.042;14.472;2023-07-09T06:48:59;98574.47;;;21.51;80.23
9822;BME280;4950;46.042;14.472;2023-07-09T06:51:25;98566.88;;;21.55;80.53
9822;BME280;4950;46.042;14.472;2023-07-09T06:53:52;98571.03;;;21.62;80.60
9822;BME280;4950;46.042;14.472;2023-07-09T06:56:18;98568.50;;;21.67;80.31
9822;BME280;4950;46.042;14.472;2023-07-09T06:58:45;98569.19;;;21.75;80.01
9822;BME280;4950;46.042;14.472;2023-07-09T07:01:13;98565.41;;;21.82;79.93
9822;BME280;4950;46.042;14.472;2023-07-09T07:03:40;98570.81;;;21.87;79.89
9822;BME280;4950;46.042;14.472;2023-07-09T07:06:07;98572.53;;;21.94;79.57
9822;BME280;4950;46.042;14.472;2023-07-09T07:08:34;98572.88;;;21.97;79.29
9822;BME280;4950;46.042;14.472;2023-07-09T07:11:02;98573.81;;;22.03;79.76
9822;BME280;4950;46.042;14.472;2023-07-09T07:13:32;98568.25;;;22.04;79.11
9822;BME280;4950;46.042;14.472;2023-07-09T07:15:59;98561.00;;;22.12;79.64
9822;BME280;4950;46.042;14.472;2023-07-09T07:18:27;98570.22;;;22.21;79.70
9822;BME280;4950;46.042;14.472;2023-07-09T07:20:54;98565.38;;;22.30;78.87
9822;BME280;4950;46.042;14.472;2023-07-09T07:23:21;98561.22;;;22.34;78.06
9822;BME280;4950;46.042;14.472;2023-07-09T07:25:48;98566.84;;;22.37;78.39
9822;BME280;4950;46.042;14.472;2023-07-09T07:28:15;98558.22;;;22.42;78.96
9822;BME280;4950;46.042;14.472;2023-07-09T07:30:42;98559.59;;;22.44;78.58
9822;BME280;4950;46.042;14.472;2023-07-09T07:33:09;98555.78;;;22.52;78.21
9822;BME280;4950;46.042;14.472;2023-07-09T07:35:37;98562.00;;;22.58;78.32
9822;BME280;4950;46.042;14.472;2023-07-09T07:38:04;98557.34;;;22.65;77.98
9822;BME280;4950;46.042;14.472;2023-07-09T07:40:31;98554.56;;;22.72;77.79
9822;BME280;4950;46.042;14.472;2023-07-09T07:42:58;98546.13;;;22.75;77.17
9822;BME280;4950;46.042;14.472;2023-07-09T07:45:25;98543.59;;;22.80;77.08
9822;BME280;4950;46.042;14.472;2023-07-09T07:47:51;98543.44;;;22.86;76.54
9822;BME280;4950;46.042;14.472;2023-07-09T07:50:18;98552.28;;;22.92;75.81
9822;BME280;4950;46.042;14.472;2023-07-09T07:52:46;98549.00;;;23.02;76.72
9822;BME280;4950;46.042;14.472;2023-07-09T07:55:13;98551.28;;;23.10;75.08
9822;BME280;4950;46.042;14.472;2023-07-09T07:57:40;98546.31;;;23.14;75.08
9822;BME280;4950;46.042;14.472;2023-07-09T08:00:07;98549.31;;;23.17;74.91
9822;BME280;4950;46.042;14.472;2023-07-09T08:02:34;98541.47;;;23.22;74.32
9822;BME280;4950;46.042;14.472;2023-07-09T08:05:01;98548.66;;;23.27;74.86
9822;BME280;4950;46.042;14.472;2023-07-09T08:07:27;98540.59;;;23.34;75.42
9822;BME280;4950;46.042;14.472;2023-07-09T08:09:55;98538.09;;;23.44;74.36
9822;BME280;4950;46.042;14.472;2023-07-09T08:12:22;98539.75;;;23.50;74.75
9822;BME280;4950;46.042;14.472;2023-07-09T08:14:49;98537.19;;;23.55;74.96
9822;BME280;4950;46.042;14.472;2023-07-09T08:17:15;98534.13;;;23.63;75.26
9822;BME280;4950;46.042;14.472;2023-07-09T08:19:46;98534.03;;;23.75;74.81
9822;BME280;4950;46.042;14.472;2023-07-09T08:22:13;98535.50;;;23.83;74.61
9822;BME280;4950;46.042;14.472;2023-07-09T08:24:40;98538.28;;;23.93;73.29
9822;BME280;4950;46.042;14.472;2023-07-09T08:27:09;98542.63;;;23.99;73.15
9822;BME280;4950;46.042;14.472;2023-07-09T08:29:36;98532.06;;;24.04;72.55
9822;BME280;4950;46.042;14.472;2023-07-09T08:32:03;98539.84;;;24.11;72.46
9822;BME280;4950;46.042;14.472;2023-07-09T08:34:30;98534.38;;;24.18;72.75
9822;BME280;4950;46.042;14.472;2023-07-09T08:36:56;98537.88;;;24.23;73.23
9822;BME280;4950;46.042;14.472;2023-07-09T08:39:23;98533.50;;;24.34;73.03
9822;BME280;4950;46.042;14.472;2023-07-09T08:41:57;98532.81;;;24.44;72.93
9822;BME280;4950;46.042;14.472;2023-07-09T08:44:48;98530.81;;;24.51;70.89
9822;BME280;4950;46.042;14.472;2023-07-09T08:47:29;98527.72;;;24.59;70.02
9822;BME280;4950;46.042;14.472;2023-07-09T08:50:02;98530.97;;;24.67;69.37
9822;BME280;4950;46.042;14.472;2023-07-09T08:52:34;98527.03;;;24.74;69.94
9822;BME280;4950;46.042;14.472;2023-07-09T08:55:05;98525.78;;;24.82;68.90
9822;BME280;4950;46.042;14.472;2023-07-09T08:57:36;98517.09;;;24.87;68.63
9822;BME280;4950;46.042;14.472;2023-07-09T09:00:13;98519.59;;;24.98;67.59
9822;BME280;4950;46.042;14.472;2023-07-09T09:02:46;98518.63;;;25.10;67.97
9822;BME280;4950;46.042;14.472;2023-07-09T09:05:18;98517.16;;;25.24;67.50
9822;BME280;4950;46.042;14.472;2023-07-09T09:07:49;98522.84;;;25.38;67.93
9822;BME280;4950;46.042;14.472;2023-07-09T09:10:18;98517.41;;;25.55;66.58
9822;BME280;4950;46.042;14.472;2023-07-09T09:12:59;98513.66;;;25.56;66.62
9822;BME280;4950;46.042;14.472;2023-07-09T09:15:32;98517.22;;;25.72;65.77
9822;BME280;4950;46.042;14.472;2023-07-09T09:18:14;98519.69;;;25.84;64.42
9822;BME280;4950;46.042;14.472;2023-07-09T09:20:46;98518.97;;;25.93;64.37
9822;BME280;4950;46.042;14.472;2023-07-09T09:23:14;98524.03;;;25.95;62.35
9822;BME280;4950;46.042;14.472;2023-07-09T09:25:44;98513.38;;;25.95;63.03
9822;BME280;4950;46.042;14.472;2023-07-09T09:28:13;98513.16;;;26.02;64.69
9822;BME280;4950;46.042;14.472;2023-07-09T09:30:41;98522.78;;;26.08;63.46
9822;BME280;4950;46.042;14.472;2023-07-09T09:33:10;98518.50;;;26.07;63.32
9822;BME280;4950;46.042;14.472;2023-07-09T09:35:37;98520.13;;;26.08;62.22
9822;BME280;4950;46.042;14.472;2023-07-09T09:38:10;98517.72;;;26.06;61.18
9822;BME280;4950;46.042;14.472;2023-07-09T09:40:37;98518.28;;;26.13;59.78
9822;BME280;4950;46.042;14.472;2023-07-09T09:43:12;98515.91;;;26.17;59.33
9822;BME280;4950;46.042;14.472;2023-07-09T09:45:43;98513.53;;;26.26;59.90
9822;BME280;4950;46.042;14.472;2023-07-09T09:48:14;98513.81;;;26.34;58.86
9822;BME280;4950;46.042;14.472;2023-07-09T09:50:41;98510.38;;;26.39;58.86
9822;BME280;4950;46.042;14.472;2023-07-09T09:53:09;98507.72;;;26.44;58.95
9822;BME280;4950;46.042;14.472;2023-07-09T09:55:40;98516.53;;;26.55;59.25
9822;BME280;4950;46.042;14.472;2023-07-09T09:58:12;98504.91;;;26.76;56.38
9822;BME280;4950;46.042;14.472;2023-07-09T10:00:48;98509.97;;;26.98;56.08
9822;BME280;4950;46.042;14.472;2023-07-09T10:03:15;98511.84;;;27.03;55.20
9822;BME280;4950;46.042;14.472;2023-07-09T10:05:45;98507.84;;;27.11;55.07
9822;BME280;4950;46.042;14.472;2023-07-09T10:08:17;98510.78;;;27.14;54.92
9822;BME280;4950;46.042;14.472;2023-07-09T10:10:51;98505.97;;;27.16;54.06
9822;BME280;4950;46.042;14.472;2023-07-09T10:13:26;98506.78;;;27.22;55.11
9822;BME280;4950;46.042;14.472;2023-07-09T10:16:03;98502.25;;;27.43;55.81
9822;BME280;4950;46.042;14.472;2023-07-09T10:18:39;98503.56;;;27.46;54.03
9822;BME280;4950;46.042;14.472;2023-07-09T10:21:14;98500.91;;;27.46;53.75
9822;BME280;4950;46.042;14.472;2023-07-09T10:23:48;98493.44;;;27.53;52.66
9822;BME280;4950;46.042;14.472;2023-07-09T10:26:25;98495.28;;;27.57;51.27
9822;BME280;4950;46.042;14.472;2023-07-09T10:29:24;98489.41;;;27.55;52.41
9822;BME280;4950;46.042;14.472;2023-07-09T10:32:03;98486.22;;;27.58;53.03
9822;BME280;4950;46.042;14.472;2023-07-09T10:34:42;98488.59;;;27.65;53.70
9822;BME280;4950;46.042;14.472;2023-07-09T10:37:26;98489.09;;;27.83;52.49
9822;BME280;4950;46.042;14.472;2023-07-09T10:39:59;98490.13;;;27.87;51.61
9822;BME280;4950;46.042;14.472;2023-07-09T10:42:30;98485.09;;;27.90;51.16
9822;BME280;4950;46.042;14.472;2023-07-09T10:45:02;98489.09;;;27.93;51.76
9822;BME280;4950;46.042;14.472;2023-07-09T10:47:34;98486.66;;;27.96;52.78
9822;BME280;4950;46.042;14.472;2023-07-09T10:50:04;98488.22;;;28.08;53.35
9822;BME280;4950;46.042;14.472;2023-07-09T10:52:35;98485.81;;;28.11;52.36
9822;BME280;4950;46.042;14.472;2023-07-09T10:55:07;98486.84;;;28.15;51.77
9822;BME280;4950;46.042;14.472;2023-07-09T10:57:42;98478.31;;;28.13;48.86
9822;BME280;4950;46.042;14.472;2023-07-09T11:00:15;98482.81;;;28.28;47.50
9822;BME280;4950;46.042;14.472;2023-07-09T11:02:46;98480.31;;;28.42;48.40
9822;BME280;4950;46.042;14.472;2023-07-09T11:05:14;98478.16;;;28.49;49.69
9822;BME280;4950;46.042;14.472;2023-07-09T11:07:45;98475.19;;;28.56;49.92
9822;BME280;4950;46.042;14.472;2023-07-09T11:10:19;98476.72;;;28.67;47.91
9822;BME280;4950;46.042;14.472;2023-07-09T11:12:54;98469.22;;;28.69;45.52
9822;BME280;4950;46.042;14.472;2023-07-09T11:15:25;98470.25;;;28.73;46.56
9822;BME280;4950;46.042;14.472;2023-07-09T11:17:57;98471.03;;;28.74;48.38
9822;BME280;4950;46.042;14.472;2023-07-09T11:20:25;98469.94;;;28.80;48.01
9822;BME280;4950;46.042;14.472;2023-07-09T11:22:59;98475.22;;;28.90;48.44
9822;BME280;4950;46.042;14.472;2023-07-09T11:25:30;98467.41;;;28.94;48.98
9822;BME280;4950;46.042;14.472;2023-07-09T11:28:05;98468.22;;;28.94;50.40
9822;BME280;4950;46.042;14.472;2023-07-09T11:30:32;98460.47;;;28.93;49.90
9822;BME280;4950;46.042;14.472;2023-07-09T11:33:03;98462.59;;;28.96;50.00
9822;BME280;4950;46.042;14.472;2023-07-09T11:35:45;98462.00;;;29.04;49.59
9822;BME280;4950;46.042;14.472;2023-07-09T11:38:17;98457.78;;;29.27;46.90
9822;BME280;4950;46.042;14.472;2023-07-09T11:40:48;98455.31;;;29.36;47.91
9822;BME280;4950;46.042;14.472;2023-07-09T11:43:31;98453.81;;;29.49;46.62
9822;BME280;4950;46.042;14.472;2023-07-09T11:46:06;98459.09;;;29.59;47.11
9822;BME280;4950;46.042;14.472;2023-07-09T11:48:36;98455.91;;;29.57;45.40
9822;BME280;4950;46.042;14.472;2023-07-09T11:51:10;98452.72;;;29.55;45.22
9822;BME280;4950;46.042;14.472;2023-07-09T11:53:44;98448.94;;;29.56;46.12
9822;BME280;4950;46.042;14.472;2023-07-09T11:56:13;98446.53;;;29.54;45.05
9822;BME280;4950;46.042;14.472;2023-07-09T11:58:49;98444.31;;;29.62;47.71
9822;BME280;4950;46.042;14.472;2023-07-09T12:01:19;98440.50;;;29.68;48.09
9822;BME280;4950;46.042;14.472;2023-07-09T12:03:48;98444.50;;;29.70;47.84
9822;BME280;4950;46.042;14.472;2023-07-09T12:06:21;98437.22;;;29.76;47.29
9822;BME280;4950;46.042;14.472;2023-07-09T12:08:50;98438.47;;;29.84;45.30
9822;BME280;4950;46.042;14.472;2023-07-09T12:11:19;98436.28;;;29.86;45.60
9822;BME280;4950;46.042;14.472;2023-07-09T12:13:46;98433.06;;;29.89;45.12
9822;BME280;4950;46.042;14.472;2023-07-09T12:16:24;98431.97;;;29.90;41.90
9822;BME280;4950;46.042;14.472;2023-07-09T12:18:56;98420.97;;;29.91;44.95
9822;BME280;4950;46.042;14.472;2023-07-09T12:21:23;98421.56;;;30.07;45.24
9822;BME280;4950;46.042;14.472;2023-07-09T12:23:53;98415.06;;;30.14;45.36
9822;BME280;4950;46.042;14.472;2023-07-09T12:26:21;98418.53;;;30.14;45.38
9822;BME280;4950;46.042;14.472;2023-07-09T12:28:51;98416.66;;;30.15;46.62
9822;BME280;4950;46.042;14.472;2023-07-09T12:31:18;98407.72;;;30.19;45.12
9822;BME280;4950;46.042;14.472;2023-07-09T12:33:48;98405.28;;;30.23;43.33
9822;BME280;4950;46.042;14.472;2023-07-09T12:36:17;98420.00;;;30.25;43.85
9822;BME280;4950;46.042;14.472;2023-07-09T12:38:46;98402.03;;;30.26;44.89
9822;BME280;4950;46.042;14.472;2023-07-09T12:41:20;98403.50;;;30.37;43.05
9822;BME280;4950;46.042;14.472;2023-07-09T12:43:48;98396.69;;;30.45;43.24
9822;BME280;4950;46.042;14.472;2023-07-09T12:46:16;98401.16;;;30.49;42.54
9822;BME280;4950;46.042;14.472;2023-07-09T12:48:43;98403.59;;;30.65;40.22
9822;BME280;4950;46.042;14.472;2023-07-09T12:51:18;98402.94;;;30.73;38.97
9822;BME280;4950;46.042;14.472;2023-07-09T12:53:46;98390.81;;;30.76;36.29
9822;BME280;4950;46.042;14.472;2023-07-09T12:56:15;98388.94;;;30.76;35.57
9822;BME280;4950;46.042;14.472;2023-07-09T12:58:42;98399.34;;;30.78;35.59
9822;BME280;4950;46.042;14.472;2023-07-09T13:01:15;98392.03;;;30.83;36.03
9822;BME280;4950;46.042;14.472;2023-07-09T13:03:52;98394.06;;;30.92;37.33
9822;BME280;4950;46.042;14.472;2023-07-09T13:06:29;98390.56;;;30.91;38.31
9822;BME280;4950;46.042;14.472;2023-07-09T13:08:57;98386.56;;;30.88;38.68
9822;BME280;4950;46.042;14.472;2023-07-09T13:11:32;98377.66;;;30.93;39.42
9822;BME280;4950;46.042;14.472;2023-07-09T13:14:02;98377.66;;;30.93;38.80
9822;BME280;4950;46.042;14.472;2023-07-09T13:16:30;98368.44;;;30.99;40.68
9822;BME280;4950;46.042;14.472;2023-07-09T13:18:57;98375.91;;;31.02;39.49
9822;BME280;4950;46.042;14.472;2023-07-09T13:21:24;98380.78;;;31.00;38.44
9822;BME280;4950;46.042;14.472;2023-07-09T13:23:52;98373.50;;;31.01;38.78
9822;BME280;4950;46.042;14.472;2023-07-09T13:26:20;98376.41;;;31.04;39.75